Wilson Volos — V2FD5 — position and weather

sailwx.info

Track history (hours):
 
Tides and Currents Weather Stations Pressure Air Temp Water Temp Dewpoint Dewpoint Depression Visibility Wind Speed Wind Dir Waves Ship Positions

Wilson Volos

Last reported at 2018-Feb-22 09:00 UTC. Time now 2018-Feb-22 09:26 UTC.
Position N 67°14' E 013°46'.

Length 114 m; draft 4.3 m.

Type: Cargo ship. MMSI: 305641000.

Date/timePositionNaut miles runAvg speedWind from/ knotsBaromVisibWave heightAir tempDewpointWater temp
2018-Feb-22 09:00N 67°14' E 013°46'5 9.7
2018-Feb-22 08:30N 67°11' E 013°57'4 8.1
2018-Feb-22 08:00N 67°08' E 014°01'611.7
2018-Feb-22 07:30N 67°03' E 013°51'611.7
2018-Feb-22 07:00N 66°60' E 013°39'510.5
2018-Feb-22 06:29N 66°56' E 013°29'611.8
2018-Feb-22 06:00N 66°51' E 013°35'3 6.5
2018-Feb-22 05:30N 66°49' E 013°42'6 0.8
2018-Feb-21 22:40N 66°49' E 013°56'0 0.0
2018-Feb-21 22:28N 66°49' E 013°56'0 0.0
2018-Feb-21 05:10N 66°49' E 013°56'0 0.0
2018-Feb-21 04:22N 66°49' E 013°56'0 0.0
2018-Feb-21 03:52N 66°49' E 013°56'0 0.0
2018-Feb-21 03:04N 66°49' E 013°56'0 0.0
2018-Feb-21 02:46N 66°49' E 013°56'0 0.0
2018-Feb-21 02:16N 66°49' E 013°56'0 0.0
2018-Feb-21 01:40N 66°49' E 013°56'0 0.0
2018-Feb-21 01:04N 66°49' E 013°56'0 0.0
2018-Feb-21 00:28N 66°49' E 013°56'0 0.0
2018-Feb-20 23:28N 66°49' E 013°56'0 0.0
2018-Feb-20 22:59N 66°49' E 013°56'1 1.1
2018-Feb-20 22:28N 66°48' E 013°55'510.2
2018-Feb-20 22:00N 66°49' E 013°43'4 7.7
2018-Feb-20 21:29N 66°51' E 013°34'611.3
2018-Feb-20 20:59N 66°56' E 013°29'510.0
2018-Feb-20 20:31N 66°58' E 013°39'611.2
2018-Feb-20 20:01N 67°02' E 013°50'611.3
2018-Feb-20 19:30N 67°07' E 013°59'4 8.9
2018-Feb-20 19:01N 67°11' E 013°59'5 9.9
2018-Feb-20 18:31N 67°13' E 013°47'3 6.6
2018-Feb-20 18:00N 67°14' E 013°39'510.7
2018-Feb-20 17:30N 67°14' E 013°25'510.6
2018-Feb-20 17:00N 67°15' E 013°12'510.0
2018-Feb-20 16:31N 67°16' E 012°59'40 6.1
2018-Feb-20 10:00N 67°52' E 012°17'510.5
2018-Feb-20 09:30N 67°56' E 012°24'510.6
2018-Feb-20 09:00N 68°01' E 012°32'510.4
2018-Feb-20 08:30N 68°05' E 012°40'510.1
2018-Feb-20 08:00N 68°09' E 012°48'510.5
2018-Feb-20 07:30N 68°13' E 012°57'510.9
2018-Feb-20 07:00N 68°17' E 013°05'611.2
2018-Feb-20 06:30N 68°22' E 013°14'510.9
2018-Feb-20 06:00N 68°26' E 013°23'510.8
2018-Feb-20 05:30N 68°31' E 013°32'510.6
2018-Feb-20 05:00N 68°35' E 013°40'510.7
2018-Feb-20 04:30N 68°39' E 013°49'510.9
2018-Feb-20 04:00N 68°44' E 013°57'510.8
2018-Feb-20 03:30N 68°48' E 014°07'510.6
2018-Feb-20 03:00N 68°52' E 014°16'510.7
2018-Feb-20 02:30N 68°56' E 014°25'611.0
2018-Feb-20 01:59N 68°60' E 014°37'511.1
2018-Feb-20 01:30N 69°04' E 014°48'510.6
2018-Feb-20 01:00N 69°07' E 014°59'510.4
2018-Feb-20 00:30N 69°11' E 015°09'510.1
2018-Feb-20 00:00N 69°15' E 015°19'510.2
2018-Feb-19 23:30N 69°18' E 015°30'510.6
2018-Feb-19 23:00N 69°22' E 015°41'511.0
2018-Feb-19 22:30N 69°26' E 015°52'510.4
2018-Feb-19 22:01N 69°29' E 016°02'611.1
2018-Feb-19 21:31N 69°33' E 016°13'611.0
2018-Feb-19 20:58N 69°38' E 016°25'510.2
2018-Feb-19 20:30N 69°41' E 016°35'510.0
2018-Feb-19 20:00N 69°44' E 016°45'510.3
2018-Feb-19 19:30N 69°48' E 016°55'611.0
2018-Feb-19 18:59N 69°52' E 017°07'611.4
2018-Feb-19 18:30N 69°56' E 017°19'611.4
2018-Feb-19 18:00N 69°60' E 017°31'611.7
2018-Feb-19 17:30N 70°04' E 017°43'611.6
2018-Feb-19 17:00N 70°08' E 017°56'611.6
2018-Feb-19 16:30N 70°12' E 018°08'611.3
2018-Feb-19 16:00N 70°16' E 018°20'510.9
2018-Feb-19 15:30N 70°19' E 018°33'510.6
2018-Feb-19 15:00N 70°22' E 018°46'510.7
2018-Feb-19 14:30N 70°24' E 019°01'510.5
2018-Feb-19 14:01N 70°27' E 019°14'510.4
2018-Feb-19 13:30N 70°29' E 019°28'510.1
2018-Feb-19 13:00N 70°32' E 019°41'510.1
2018-Feb-19 12:31N 70°34' E 019°54'510.4
2018-Feb-19 12:00N 70°36' E 020°09'510.7
2018-Feb-19 11:30N 70°39' E 020°24'510.7
2018-Feb-19 11:00N 70°41' E 020°38'2011.1
2018-Feb-19 09:09N 70°50' E 021°33'211.5
2018-Feb-19 09:00N 70°51' E 021°38'611.4
2018-Feb-19 08:30N 70°53' E 021°54'611.2
2018-Feb-19 08:00N 70°56' E 022°09'510.2
2018-Feb-19 07:30N 70°58' E 022°23'510.5
2018-Feb-19 07:00N 71°01' E 022°37'510.7
2018-Feb-19 06:30N 71°03' E 022°52'510.4
2018-Feb-19 06:00N 71°06' E 023°06'510.1
2018-Feb-19 05:30N 71°08' E 023°20'510.1
2018-Feb-19 05:00N 71°10' E 023°34'5 9.6
2018-Feb-19 04:30N 71°12' E 023°48'5 9.4
2018-Feb-19 04:00N 71°12' E 024°02'5 9.5
2018-Feb-19 03:30N 71°13' E 024°17'5 9.6
2018-Feb-19 03:00N 71°14' E 024°31'5 9.2
2018-Feb-19 02:29N 71°14' E 024°46'4 9.0
2018-Feb-19 02:00N 71°15' E 024°60'5 9.3
2018-Feb-19 01:30N 71°15' E 025°14'510.2
2018-Feb-19 01:00N 71°15' E 025°30'510.6
2018-Feb-19 00:30N 71°15' E 025°46'510.3
2018-Feb-19 00:00N 71°15' E 026°02'511.0
2018-Feb-18 23:30N 71°14' E 026°19'611.8
2018-Feb-18 23:00N 71°14' E 026°38'611.7
2018-Feb-18 22:29N 71°14' E 026°56'612.2
2018-Feb-18 22:00N 71°14' E 027°15'611.6
2018-Feb-18 21:30N 71°14' E 027°33'611.0
2018-Feb-18 21:00N 71°13' E 027°50'510.5
2018-Feb-18 20:30N 71°12' E 028°06'510.7
2018-Feb-18 20:00N 71°10' E 028°20'510.7
2018-Feb-18 19:30N 71°07' E 028°34'610.6
2018-Feb-18 18:59N 71°04' E 028°49'510.4
2018-Feb-18 18:30N 71°01' E 029°02'510.1
2018-Feb-18 18:00N 70°59' E 029°16'510.3
2018-Feb-18 17:30N 70°56' E 029°30'510.5
2018-Feb-18 17:00N 70°54' E 029°44'510.3
2018-Feb-18 16:30N 70°51' E 029°57'510.2
2018-Feb-18 16:00N 70°48' E 030°09'5 9.9
2018-Feb-18 15:30N 70°45' E 030°21'5 9.7
2018-Feb-18 15:00N 70°42' E 030°33'5 9.9
2018-Feb-18 14:30N 70°39' E 030°45'510.6
2018-Feb-18 14:00N 70°36' E 030°57'510.6
2018-Feb-18 13:30N 70°32' E 031°09'510.3
2018-Feb-18 13:00N 70°29' E 031°21'610.8
2018-Feb-18 12:29N 70°26' E 031°34'511.0
2018-Feb-18 12:00N 70°22' E 031°47'84 8.6
2018-Feb-18 02:14N 69°03' E 033°05'1 6.0
2018-Feb-18 02:00N 69°02' E 033°03'3 5.6
2018-Feb-18 01:31N 68°59' E 033°03'0 0.1
2018-Feb-18 00:58N 68°59' E 033°03'0 0.0
2018-Feb-18 00:28N 68°59' E 033°03'0 0.0
2018-Feb-17 23:58N 68°59' E 033°03'0 0.0
2018-Feb-17 23:28N 68°59' E 033°03'0 0.0
2018-Feb-17 22:52N 68°59' E 033°03'0 0.0
2018-Feb-17 22:28N 68°59' E 033°03'0 0.0
2018-Feb-17 21:58N 68°59' E 033°03'0 0.0
2018-Feb-17 21:28N 68°59' E 033°03'0 0.0
2018-Feb-17 20:58N 68°59' E 033°03'0 0.0
2018-Feb-17 20:28N 68°59' E 033°03'0 0.0
2018-Feb-17 19:58N 68°59' E 033°03'0 0.0
2018-Feb-17 19:28N 68°59' E 033°03'0 0.0
2018-Feb-17 18:58N 68°59' E 033°03'0 0.0
2018-Feb-17 18:28N 68°59' E 033°03'0 0.0
2018-Feb-17 17:58N 68°59' E 033°03'0 0.0
2018-Feb-17 17:28N 68°59' E 033°03'0 0.0
2018-Feb-17 16:58N 68°59' E 033°03'0 0.0
2018-Feb-17 16:28N 68°59' E 033°03'0 0.0
2018-Feb-17 15:55N 68°59' E 033°03'0 0.0
2018-Feb-17 15:28N 68°59' E 033°03'0 0.0
2018-Feb-17 14:58N 68°59' E 033°03'0 0.0
2018-Feb-17 14:28N 68°59' E 033°03'0 0.0
2018-Feb-17 13:58N 68°59' E 033°03'0 0.0
2018-Feb-17 13:25N 68°59' E 033°03'0 0.0
2018-Feb-17 12:58N 68°59' E 033°03'0 0.0
2018-Feb-17 12:28N 68°59' E 033°03'0 0.0
2018-Feb-17 11:58N 68°59' E 033°03'0 0.0
2018-Feb-17 11:28N 68°59' E 033°03'0 0.0
2018-Feb-17 10:58N 68°59' E 033°03'0 0.0
2018-Feb-17 10:28N 68°59' E 033°03'0 0.0
2018-Feb-17 09:55N 68°59' E 033°03'0 0.0
2018-Feb-17 09:28N 68°59' E 033°03'0 0.0
2018-Feb-17 08:58N 68°59' E 033°03'0 0.0
2018-Feb-17 08:25N 68°59' E 033°03'0 0.0
2018-Feb-17 07:58N 68°59' E 033°03'0 0.0
2018-Feb-17 07:28N 68°59' E 033°03'0 0.0
2018-Feb-17 06:58N 68°59' E 033°03'0 0.0
2018-Feb-17 06:30N 68°59' E 033°03'2 3.4
2018-Feb-17 06:01N 69°01' E 033°03'1 2.2
2018-Feb-17 05:29N 69°02' E 033°03'0 0.0
2018-Feb-17 04:59N 69°02' E 033°03'0 0.1
2018-Feb-17 04:29N 69°02' E 033°03'0 0.0
2018-Feb-17 03:59N 69°02' E 033°03'0 0.0
2018-Feb-17 03:29N 69°02' E 033°03'0 0.1
2018-Feb-17 02:59N 69°02' E 033°03'0 0.0
2018-Feb-17 02:29N 69°02' E 033°03'0 0.0
2018-Feb-17 01:59N 69°02' E 033°03'0 0.0
2018-Feb-17 01:29N 69°02' E 033°03'0 0.0
2018-Feb-17 00:59N 69°02' E 033°03'0 0.0
2018-Feb-17 00:29N 69°02' E 033°03'0 0.0
2018-Feb-16 23:59N 69°02' E 033°03'0 0.0
2018-Feb-16 23:29N 69°02' E 033°03'0 0.0
2018-Feb-16 22:59N 69°02' E 033°03'0 0.0
2018-Feb-16 22:26N 69°02' E 033°03'0 0.0
2018-Feb-16 21:59N 69°02' E 033°03'0 0.0
2018-Feb-16 21:29N 69°02' E 033°03'0 0.0
2018-Feb-16 20:59N 69°02' E 033°03'0 0.0
2018-Feb-16 20:26N 69°02' E 033°03'0 0.0
2018-Feb-16 19:56N 69°02' E 033°03'0 0.0
2018-Feb-16 19:29N 69°02' E 033°03'0 0.0
2018-Feb-16 18:59N 69°02' E 033°03'0 0.0
2018-Feb-16 18:29N 69°02' E 033°03'0 0.0
2018-Feb-16 17:56N 69°02' E 033°03'0 0.0
2018-Feb-16 17:29N 69°02' E 033°03'0 0.0
2018-Feb-16 16:59N 69°02' E 033°03'0 0.0
2018-Feb-16 16:20N 69°02' E 033°03'0 0.0
2018-Feb-16 15:59N 69°02' E 033°03'0 0.0
2018-Feb-16 15:26N 69°02' E 033°03'0 0.0
2018-Feb-16 14:59N 69°02' E 033°03'0 0.0
2018-Feb-16 14:29N 69°02' E 033°03'0 0.0
2018-Feb-16 13:59N 69°02' E 033°03'0 0.0
2018-Feb-16 13:29N 69°02' E 033°03'0 0.0
2018-Feb-16 12:59N 69°02' E 033°03'0 0.0
2018-Feb-16 12:29N 69°02' E 033°03'0 0.0
2018-Feb-16 11:50N 69°02' E 033°03'0 0.0
2018-Feb-16 11:29N 69°02' E 033°03'0 0.0
2018-Feb-16 10:56N 69°02' E 033°03'0 0.1
2018-Feb-16 10:29N 69°02' E 033°03'0 0.0
2018-Feb-16 09:59N 69°02' E 033°03'0 0.0
2018-Feb-16 09:23N 69°02' E 033°03'0 0.0
2018-Feb-16 08:59N 69°02' E 033°03'0 0.0
2018-Feb-16 08:29N 69°02' E 033°03'0 0.0
2018-Feb-16 07:59N 69°02' E 033°03'0 0.0
2018-Feb-16 07:29N 69°02' E 033°03'0 0.0
2018-Feb-16 06:59N 69°02' E 033°03'0 0.0
2018-Feb-16 06:29N 69°02' E 033°03'0 0.0
2018-Feb-16 05:59N 69°02' E 033°03'0 0.0
2018-Feb-16 05:29N 69°02' E 033°03'0 0.0
2018-Feb-16 04:53N 69°02' E 033°03'0 0.0
2018-Feb-16 04:29N 69°02' E 033°03'0 0.0
2018-Feb-16 03:59N 69°02' E 033°03'0 0.0
2018-Feb-16 03:29N 69°02' E 033°03'0 0.0
2018-Feb-16 02:59N 69°02' E 033°03'0 0.0
2018-Feb-16 02:29N 69°02' E 033°03'0 0.0
2018-Feb-16 01:59N 69°02' E 033°03'0 0.0
2018-Feb-16 01:29N 69°02' E 033°03'0 0.0
2018-Feb-16 00:59N 69°02' E 033°03'0 0.1
2018-Feb-16 00:29N 69°02' E 033°02'0 0.0
2018-Feb-15 23:59N 69°02' E 033°03'0 0.0
2018-Feb-15 23:29N 69°02' E 033°03'0 0.0
2018-Feb-15 22:59N 69°02' E 033°03'0 0.0
2018-Feb-15 22:29N 69°02' E 033°03'0 0.0
2018-Feb-15 21:56N 69°02' E 033°03'0 0.0
2018-Feb-15 21:29N 69°02' E 033°03'0 0.0
2018-Feb-15 20:59N 69°02' E 033°03'0 0.0
2018-Feb-15 20:29N 69°02' E 033°03'0 0.0
2018-Feb-15 19:59N 69°02' E 033°03'0 0.0
2018-Feb-15 19:29N 69°02' E 033°03'0 0.0
2018-Feb-15 18:59N 69°02' E 033°03'0 0.0
2018-Feb-15 18:29N 69°02' E 033°03'0 0.0
2018-Feb-15 17:59N 69°02' E 033°03'0 0.0
2018-Feb-15 17:29N 69°02' E 033°03'0 0.0
2018-Feb-15 16:59N 69°02' E 033°03'0 0.0
2018-Feb-15 16:29N 69°02' E 033°03'0 0.0
2018-Feb-15 15:59N 69°02' E 033°03'0 0.0
2018-Feb-15 15:29N 69°02' E 033°03'0 0.0
2018-Feb-15 14:56N 69°02' E 033°03'0 0.0
2018-Feb-15 14:20N 69°02' E 033°03'0 0.0
2018-Feb-15 13:56N 69°02' E 033°03'0 0.0
2018-Feb-15 13:29N 69°02' E 033°03'0 0.0
2018-Feb-15 12:59N 69°02' E 033°03'0 0.0
2018-Feb-15 12:29N 69°02' E 033°03'0 0.1
2018-Feb-15 11:59N 69°02' E 033°03'0 0.0
2018-Feb-15 11:29N 69°02' E 033°03'0 0.0
2018-Feb-15 10:59N 69°02' E 033°03'0 0.0
2018-Feb-15 10:29N 69°02' E 033°03'0 0.0
2018-Feb-15 09:59N 69°02' E 033°03'0 0.0
2018-Feb-15 09:26N 69°02' E 033°03'0 0.0
2018-Feb-15 08:59N 69°02' E 033°03'0 0.0
2018-Feb-15 08:29N 69°02' E 033°03'0 0.0
2018-Feb-15 07:59N 69°02' E 033°03'0 0.0
2018-Feb-15 07:29N 69°02' E 033°03'0 0.0
2018-Feb-15 06:59N 69°02' E 033°03'0 0.0
2018-Feb-15 06:20N 69°02' E 033°03'0 0.0
2018-Feb-15 05:59N 69°02' E 033°03'0 0.0
2018-Feb-15 05:29N 69°02' E 033°03'0 0.0
2018-Feb-15 04:56N 69°02' E 033°03'0 0.0
2018-Feb-15 04:29N 69°02' E 033°03'0 0.0
2018-Feb-15 03:59N 69°02' E 033°03'0 0.0
2018-Feb-15 03:29N 69°02' E 033°03'0 0.0
2018-Feb-15 02:59N 69°02' E 033°03'0 0.0
2018-Feb-15 02:29N 69°02' E 033°03'0 0.0
2018-Feb-15 01:59N 69°02' E 033°03'0 0.0
2018-Feb-15 01:29N 69°02' E 033°03'0 0.0
2018-Feb-15 00:59N 69°02' E 033°03'0 0.0
2018-Feb-15 00:29N 69°02' E 033°03'0 0.0
2018-Feb-14 23:59N 69°02' E 033°03'0 0.0
2018-Feb-14 23:29N 69°02' E 033°03'0 0.0
2018-Feb-14 22:59N 69°02' E 033°03'0 0.0
2018-Feb-14 22:29N 69°02' E 033°03'0 0.0
2018-Feb-14 21:59N 69°02' E 033°03'0 0.0
2018-Feb-14 21:26N 69°02' E 033°03'0 0.0
2018-Feb-14 20:56N 69°02' E 033°03'0 0.0
2018-Feb-14 20:29N 69°02' E 033°03'0 0.0
2018-Feb-14 19:59N 69°02' E 033°03'0 0.0
2018-Feb-14 19:29N 69°02' E 033°03'0 0.0
2018-Feb-14 18:59N 69°02' E 033°03'0 0.0
2018-Feb-14 18:29N 69°02' E 033°03'0 0.0
2018-Feb-14 17:59N 69°02' E 033°03'0 0.0
2018-Feb-14 17:29N 69°02' E 033°03'0 0.0
2018-Feb-14 16:59N 69°02' E 033°03'0 0.0
2018-Feb-14 16:29N 69°02' E 033°03'0 0.0
2018-Feb-14 15:59N 69°02' E 033°03'0 0.0
2018-Feb-14 15:29N 69°02' E 033°03'0 0.0
2018-Feb-14 14:59N 69°02' E 033°03'0 0.0
2018-Feb-14 14:29N 69°02' E 033°03'0 0.0
2018-Feb-14 13:56N 69°02' E 033°03'0 0.0
2018-Feb-14 13:29N 69°02' E 033°03'0 0.0
2018-Feb-14 12:59N 69°02' E 033°03'0 0.0
2018-Feb-14 12:29N 69°02' E 033°03'0 0.0
2018-Feb-14 11:56N 69°02' E 033°03'0 0.0
2018-Feb-14 11:29N 69°02' E 033°03'0 0.0
2018-Feb-14 10:59N 69°02' E 033°03'0 0.0
2018-Feb-14 10:29N 69°02' E 033°03'0 0.0
2018-Feb-14 09:59N 69°02' E 033°03'0 0.0
2018-Feb-14 09:29N 69°02' E 033°03'0 0.0
2018-Feb-14 08:59N 69°02' E 033°03'0 0.0
2018-Feb-14 08:29N 69°02' E 033°03'0 0.0
2018-Feb-14 07:59N 69°02' E 033°03'0 0.0
2018-Feb-14 07:29N 69°02' E 033°03'0 0.0
2018-Feb-14 06:59N 69°02' E 033°03'0 0.0
2018-Feb-14 06:29N 69°02' E 033°03'0 0.0
2018-Feb-14 05:59N 69°02' E 033°03'0 0.0
2018-Feb-14 05:29N 69°02' E 033°03'0 0.0
2018-Feb-14 04:53N 69°02' E 033°03'0 0.0
2018-Feb-14 04:26N 69°02' E 033°03'0 0.0
2018-Feb-14 03:59N 69°02' E 033°03'0 0.0
2018-Feb-14 03:29N 69°02' E 033°03'0 0.0
2018-Feb-14 02:59N 69°02' E 033°03'0 0.0
2018-Feb-14 02:29N 69°02' E 033°03'0 0.0
2018-Feb-14 01:59N 69°02' E 033°03'0 0.0
2018-Feb-14 01:29N 69°02' E 033°03'0 0.0
2018-Feb-14 00:59N 69°02' E 033°03'0 0.0
2018-Feb-14 00:26N 69°02' E 033°03'0 0.0
2018-Feb-13 23:59N 69°02' E 033°03'0 0.0
2018-Feb-13 23:26N 69°02' E 033°03'0 0.0
2018-Feb-13 22:59N 69°02' E 033°03'0 0.0
2018-Feb-13 22:26N 69°02' E 033°03'0 0.0
2018-Feb-13 21:59N 69°02' E 033°03'0 0.0
2018-Feb-13 21:29N 69°02' E 033°03'0 0.0
2018-Feb-13 20:59N 69°02' E 033°03'0 0.0
2018-Feb-13 20:29N 69°02' E 033°03'0 0.0
2018-Feb-13 19:56N 69°02' E 033°03'0 0.0
2018-Feb-13 19:29N 69°02' E 033°03'0 0.0
2018-Feb-13 18:59N 69°02' E 033°03'0 0.0
2018-Feb-13 18:23N 69°02' E 033°03'0 0.0
2018-Feb-13 17:59N 69°02' E 033°03'0 0.0
2018-Feb-13 17:29N 69°02' E 033°03'0 0.0
2018-Feb-13 16:59N 69°02' E 033°03'0 0.0
2018-Feb-13 16:29N 69°02' E 033°03'0 0.0
2018-Feb-13 15:59N 69°02' E 033°03'0 0.0
2018-Feb-13 15:29N 69°02' E 033°03'0 0.0
2018-Feb-13 14:59N 69°02' E 033°03'0 0.0
2018-Feb-13 14:29N 69°02' E 033°03'0 0.0
2018-Feb-13 13:59N 69°02' E 033°03'0 0.0
2018-Feb-13 13:29N 69°02' E 033°03'0 0.0
2018-Feb-13 12:59N 69°02' E 033°03'0 0.0
2018-Feb-13 12:29N 69°02' E 033°03'0 0.0
2018-Feb-13 11:56N 69°02' E 033°03'0 0.0
2018-Feb-13 11:26N 69°02' E 033°03'0 0.0
2018-Feb-13 10:56N 69°02' E 033°03'0 0.0
2018-Feb-13 10:29N 69°02' E 033°03'0 0.0
2018-Feb-13 09:59N 69°02' E 033°03'0 0.0
2018-Feb-13 09:29N 69°02' E 033°03'0 0.0
2018-Feb-13 08:59N 69°02' E 033°03'0 0.0
2018-Feb-13 08:26N 69°02' E 033°03'0 0.0
2018-Feb-13 07:59N 69°02' E 033°03'0 0.0
2018-Feb-13 07:29N 69°02' E 033°03'0 0.0
2018-Feb-13 06:59N 69°02' E 033°03'0 0.0
2018-Feb-13 06:29N 69°02' E 033°03'0 0.0
2018-Feb-13 05:59N 69°02' E 033°03'0 0.0
2018-Feb-13 05:29N 69°02' E 033°03'0 0.0
2018-Feb-13 04:56N 69°02' E 033°03'0 0.0
2018-Feb-13 04:26N 69°02' E 033°03'0 0.0
2018-Feb-13 03:59N 69°02' E 033°03'0 0.0
2018-Feb-13 03:29N 69°02' E 033°03'0 0.0
2018-Feb-13 02:56N 69°02' E 033°03'0 0.0
2018-Feb-13 02:29N 69°02' E 033°03'0 0.0
2018-Feb-13 01:59N 69°02' E 033°03'0 0.0
2018-Feb-13 01:29N 69°02' E 033°03'0 0.0
2018-Feb-13 00:59N 69°02' E 033°03'0 0.0
2018-Feb-13 00:29N 69°02' E 033°03'0 0.0
2018-Feb-12 23:56N 69°02' E 033°03'0 0.0
2018-Feb-12 23:29N 69°02' E 033°03'0 0.0
2018-Feb-12 22:59N 69°02' E 033°03'0 0.0
2018-Feb-12 22:29N 69°02' E 033°03'0 0.0
2018-Feb-12 21:59N 69°02' E 033°03'0 0.0
2018-Feb-12 21:29N 69°02' E 033°03'0 0.0
2018-Feb-12 20:59N 69°02' E 033°03'0 0.0
2018-Feb-12 20:29N 69°02' E 033°03'0 0.0
2018-Feb-12 19:59N 69°02' E 033°03'0 0.0
2018-Feb-12 19:29N 69°02' E 033°03'0 0.0
2018-Feb-12 18:59N 69°02' E 033°03'0 0.0
2018-Feb-12 18:29N 69°02' E 033°03'0 0.0
2018-Feb-12 17:59N 69°02' E 033°03'0 0.0
2018-Feb-12 17:29N 69°02' E 033°03'0 0.0
2018-Feb-12 16:56N 69°02' E 033°03'0 0.0
2018-Feb-12 16:29N 69°02' E 033°03'0 0.0
2018-Feb-12 15:59N 69°02' E 033°03'0 0.0
2018-Feb-12 15:17N 69°02' E 033°03'0 0.0
2018-Feb-12 14:59N 69°02' E 033°03'0 0.0
2018-Feb-12 14:29N 69°02' E 033°03'0 0.0
2018-Feb-12 13:59N 69°02' E 033°03'0 0.0
2018-Feb-12 13:29N 69°02' E 033°03'0 0.0
2018-Feb-12 12:59N 69°02' E 033°03'0 0.0
2018-Feb-12 12:29N 69°02' E 033°03'0 0.0
2018-Feb-12 11:56N 69°02' E 033°03'0 0.0
2018-Feb-12 11:29N 69°02' E 033°03'0 0.0
2018-Feb-12 10:59N 69°02' E 033°03'0 0.1
2018-Feb-12 10:29N 69°02' E 033°03'0 0.1
2018-Feb-12 09:59N 69°02' E 033°03'0 0.0
2018-Feb-12 09:29N 69°02' E 033°03'  
Track history (hours):
 
Tides and Currents Weather Stations Pressure Air Temp Water Temp Dewpoint Dewpoint Depression Visibility Wind Speed Wind Dir Waves Ship Positions

Wilson Volos

Last reported at 2018-Feb-22 09:00 UTC. Time now 2018-Feb-22 09:26 UTC.
Position N 67°14' E 013°46'.

Length 114 m; draft 4.3 m.

Type: Cargo ship. MMSI: 305641000.

Date/timePositionNaut miles runAvg speedWind from/ knotsBaromVisibWave heightAir tempDewpointWater temp
2018-Feb-22 09:00N 67°14' E 013°46'5 9.7
2018-Feb-22 08:30N 67°11' E 013°57'4 8.1
2018-Feb-22 08:00N 67°08' E 014°01'611.7
2018-Feb-22 07:30N 67°03' E 013°51'611.7
2018-Feb-22 07:00N 66°60' E 013°39'510.5
2018-Feb-22 06:29N 66°56' E 013°29'611.8
2018-Feb-22 06:00N 66°51' E 013°35'3 6.5
2018-Feb-22 05:30N 66°49' E 013°42'6 0.8
2018-Feb-21 22:40N 66°49' E 013°56'0 0.0
2018-Feb-21 22:28N 66°49' E 013°56'0 0.0
2018-Feb-21 05:10N 66°49' E 013°56'0 0.0
2018-Feb-21 04:22N 66°49' E 013°56'0 0.0
2018-Feb-21 03:52N 66°49' E 013°56'0 0.0
2018-Feb-21 03:04N 66°49' E 013°56'0 0.0
2018-Feb-21 02:46N 66°49' E 013°56'0 0.0
2018-Feb-21 02:16N 66°49' E 013°56'0 0.0
2018-Feb-21 01:40N 66°49' E 013°56'0 0.0
2018-Feb-21 01:04N 66°49' E 013°56'0 0.0
2018-Feb-21 00:28N 66°49' E 013°56'0 0.0
2018-Feb-20 23:28N 66°49' E 013°56'0 0.0
2018-Feb-20 22:59N 66°49' E 013°56'1 1.1
2018-Feb-20 22:28N 66°48' E 013°55'510.2
2018-Feb-20 22:00N 66°49' E 013°43'4 7.7
2018-Feb-20 21:29N 66°51' E 013°34'611.3
2018-Feb-20 20:59N 66°56' E 013°29'510.0
2018-Feb-20 20:31N 66°58' E 013°39'611.2
2018-Feb-20 20:01N 67°02' E 013°50'611.3
2018-Feb-20 19:30N 67°07' E 013°59'4 8.9
2018-Feb-20 19:01N 67°11' E 013°59'5 9.9
2018-Feb-20 18:31N 67°13' E 013°47'3 6.6
2018-Feb-20 18:00N 67°14' E 013°39'510.7
2018-Feb-20 17:30N 67°14' E 013°25'510.6
2018-Feb-20 17:00N 67°15' E 013°12'510.0
2018-Feb-20 16:31N 67°16' E 012°59'40 6.1
2018-Feb-20 10:00N 67°52' E 012°17'510.5
2018-Feb-20 09:30N 67°56' E 012°24'510.6
2018-Feb-20 09:00N 68°01' E 012°32'510.4
2018-Feb-20 08:30N 68°05' E 012°40'510.1
2018-Feb-20 08:00N 68°09' E 012°48'510.5
2018-Feb-20 07:30N 68°13' E 012°57'510.9
2018-Feb-20 07:00N 68°17' E 013°05'611.2
2018-Feb-20 06:30N 68°22' E 013°14'510.9
2018-Feb-20 06:00N 68°26' E 013°23'510.8
2018-Feb-20 05:30N 68°31' E 013°32'510.6
2018-Feb-20 05:00N 68°35' E 013°40'510.7
2018-Feb-20 04:30N 68°39' E 013°49'510.9
2018-Feb-20 04:00N 68°44' E 013°57'510.8
2018-Feb-20 03:30N 68°48' E 014°07'510.6
2018-Feb-20 03:00N 68°52' E 014°16'510.7
2018-Feb-20 02:30N 68°56' E 014°25'611.0
2018-Feb-20 01:59N 68°60' E 014°37'511.1
2018-Feb-20 01:30N 69°04' E 014°48'510.6
2018-Feb-20 01:00N 69°07' E 014°59'510.4
2018-Feb-20 00:30N 69°11' E 015°09'510.1
2018-Feb-20 00:00N 69°15' E 015°19'510.2
2018-Feb-19 23:30N 69°18' E 015°30'510.6
2018-Feb-19 23:00N 69°22' E 015°41'511.0
2018-Feb-19 22:30N 69°26' E 015°52'510.4
2018-Feb-19 22:01N 69°29' E 016°02'611.1
2018-Feb-19 21:31N 69°33' E 016°13'611.0
2018-Feb-19 20:58N 69°38' E 016°25'510.2
2018-Feb-19 20:30N 69°41' E 016°35'510.0
2018-Feb-19 20:00N 69°44' E 016°45'510.3
2018-Feb-19 19:30N 69°48' E 016°55'611.0
2018-Feb-19 18:59N 69°52' E 017°07'611.4
2018-Feb-19 18:30N 69°56' E 017°19'611.4
2018-Feb-19 18:00N 69°60' E 017°31'611.7
2018-Feb-19 17:30N 70°04' E 017°43'611.6
2018-Feb-19 17:00N 70°08' E 017°56'611.6
2018-Feb-19 16:30N 70°12' E 018°08'611.3
2018-Feb-19 16:00N 70°16' E 018°20'510.9
2018-Feb-19 15:30N 70°19' E 018°33'510.6
2018-Feb-19 15:00N 70°22' E 018°46'510.7
2018-Feb-19 14:30N 70°24' E 019°01'510.5
2018-Feb-19 14:01N 70°27' E 019°14'510.4
2018-Feb-19 13:30N 70°29' E 019°28'510.1
2018-Feb-19 13:00N 70°32' E 019°41'510.1
2018-Feb-19 12:31N 70°34' E 019°54'510.4
2018-Feb-19 12:00N 70°36' E 020°09'510.7
2018-Feb-19 11:30N 70°39' E 020°24'510.7
2018-Feb-19 11:00N 70°41' E 020°38'2011.1
2018-Feb-19 09:09N 70°50' E 021°33'211.5
2018-Feb-19 09:00N 70°51' E 021°38'611.4
2018-Feb-19 08:30N 70°53' E 021°54'611.2
2018-Feb-19 08:00N 70°56' E 022°09'510.2
2018-Feb-19 07:30N 70°58' E 022°23'510.5
2018-Feb-19 07:00N 71°01' E 022°37'510.7
2018-Feb-19 06:30N 71°03' E 022°52'510.4
2018-Feb-19 06:00N 71°06' E 023°06'510.1
2018-Feb-19 05:30N 71°08' E 023°20'510.1
2018-Feb-19 05:00N 71°10' E 023°34'5 9.6
2018-Feb-19 04:30N 71°12' E 023°48'5 9.4
2018-Feb-19 04:00N 71°12' E 024°02'5 9.5
2018-Feb-19 03:30N 71°13' E 024°17'5 9.6
2018-Feb-19 03:00N 71°14' E 024°31'5 9.2
2018-Feb-19 02:29N 71°14' E 024°46'4 9.0
2018-Feb-19 02:00N 71°15' E 024°60'5 9.3
2018-Feb-19 01:30N 71°15' E 025°14'510.2
2018-Feb-19 01:00N 71°15' E 025°30'510.6
2018-Feb-19 00:30N 71°15' E 025°46'510.3
2018-Feb-19 00:00N 71°15' E 026°02'511.0
2018-Feb-18 23:30N 71°14' E 026°19'611.8
2018-Feb-18 23:00N 71°14' E 026°38'611.7
2018-Feb-18 22:29N 71°14' E 026°56'612.2
2018-Feb-18 22:00N 71°14' E 027°15'611.6
2018-Feb-18 21:30N 71°14' E 027°33'611.0
2018-Feb-18 21:00N 71°13' E 027°50'510.5
2018-Feb-18 20:30N 71°12' E 028°06'510.7
2018-Feb-18 20:00N 71°10' E 028°20'510.7
2018-Feb-18 19:30N 71°07' E 028°34'610.6
2018-Feb-18 18:59N 71°04' E 028°49'510.4
2018-Feb-18 18:30N 71°01' E 029°02'510.1
2018-Feb-18 18:00N 70°59' E 029°16'510.3
2018-Feb-18 17:30N 70°56' E 029°30'510.5
2018-Feb-18 17:00N 70°54' E 029°44'510.3
2018-Feb-18 16:30N 70°51' E 029°57'510.2
2018-Feb-18 16:00N 70°48' E 030°09'5 9.9
2018-Feb-18 15:30N 70°45' E 030°21'5 9.7
2018-Feb-18 15:00N 70°42' E 030°33'5 9.9
2018-Feb-18 14:30N 70°39' E 030°45'510.6
2018-Feb-18 14:00N 70°36' E 030°57'510.6
2018-Feb-18 13:30N 70°32' E 031°09'510.3
2018-Feb-18 13:00N 70°29' E 031°21'610.8
2018-Feb-18 12:29N 70°26' E 031°34'511.0
2018-Feb-18 12:00N 70°22' E 031°47'84 8.6
2018-Feb-18 02:14N 69°03' E 033°05'1 6.0
2018-Feb-18 02:00N 69°02' E 033°03'3 5.6
2018-Feb-18 01:31N 68°59' E 033°03'0 0.1
2018-Feb-18 00:58N 68°59' E 033°03'0 0.0
2018-Feb-18 00:28N 68°59' E 033°03'0 0.0
2018-Feb-17 23:58N 68°59' E 033°03'0 0.0
2018-Feb-17 23:28N 68°59' E 033°03'0 0.0
2018-Feb-17 22:52N 68°59' E 033°03'0 0.0
2018-Feb-17 22:28N 68°59' E 033°03'0 0.0
2018-Feb-17 21:58N 68°59' E 033°03'0 0.0
2018-Feb-17 21:28N 68°59' E 033°03'0 0.0
2018-Feb-17 20:58N 68°59' E 033°03'0 0.0
2018-Feb-17 20:28N 68°59' E 033°03'0 0.0
2018-Feb-17 19:58N 68°59' E 033°03'0 0.0
2018-Feb-17 19:28N 68°59' E 033°03'0 0.0
2018-Feb-17 18:58N 68°59' E 033°03'0 0.0
2018-Feb-17 18:28N 68°59' E 033°03'0 0.0
2018-Feb-17 17:58N 68°59' E 033°03'0 0.0
2018-Feb-17 17:28N 68°59' E 033°03'0 0.0
2018-Feb-17 16:58N 68°59' E 033°03'0 0.0
2018-Feb-17 16:28N 68°59' E 033°03'0 0.0
2018-Feb-17 15:55N 68°59' E 033°03'0 0.0
2018-Feb-17 15:28N 68°59' E 033°03'0 0.0
2018-Feb-17 14:58N 68°59' E 033°03'0 0.0
2018-Feb-17 14:28N 68°59' E 033°03'0 0.0
2018-Feb-17 13:58N 68°59' E 033°03'0 0.0
2018-Feb-17 13:25N 68°59' E 033°03'0 0.0
2018-Feb-17 12:58N 68°59' E 033°03'0 0.0
2018-Feb-17 12:28N 68°59' E 033°03'0 0.0
2018-Feb-17 11:58N 68°59' E 033°03'0 0.0
2018-Feb-17 11:28N 68°59' E 033°03'0 0.0
2018-Feb-17 10:58N 68°59' E 033°03'0 0.0
2018-Feb-17 10:28N 68°59' E 033°03'0 0.0
2018-Feb-17 09:55N 68°59' E 033°03'0 0.0
2018-Feb-17 09:28N 68°59' E 033°03'0 0.0
2018-Feb-17 08:58N 68°59' E 033°03'0 0.0
2018-Feb-17 08:25N 68°59' E 033°03'0 0.0
2018-Feb-17 07:58N 68°59' E 033°03'0 0.0
2018-Feb-17 07:28N 68°59' E 033°03'0 0.0
2018-Feb-17 06:58N 68°59' E 033°03'0 0.0
2018-Feb-17 06:30N 68°59' E 033°03'2 3.4
2018-Feb-17 06:01N 69°01' E 033°03'1 2.2
2018-Feb-17 05:29N 69°02' E 033°03'0 0.0
2018-Feb-17 04:59N 69°02' E 033°03'0 0.1
2018-Feb-17 04:29N 69°02' E 033°03'0 0.0
2018-Feb-17 03:59N 69°02' E 033°03'0 0.0
2018-Feb-17 03:29N 69°02' E 033°03'0 0.1
2018-Feb-17 02:59N 69°02' E 033°03'0 0.0
2018-Feb-17 02:29N 69°02' E 033°03'0 0.0
2018-Feb-17 01:59N 69°02' E 033°03'0 0.0
2018-Feb-17 01:29N 69°02' E 033°03'0 0.0
2018-Feb-17 00:59N 69°02' E 033°03'0 0.0
2018-Feb-17 00:29N 69°02' E 033°03'0 0.0
2018-Feb-16 23:59N 69°02' E 033°03'0 0.0
2018-Feb-16 23:29N 69°02' E 033°03'0 0.0
2018-Feb-16 22:59N 69°02' E 033°03'0 0.0
2018-Feb-16 22:26N 69°02' E 033°03'0 0.0
2018-Feb-16 21:59N 69°02' E 033°03'0 0.0
2018-Feb-16 21:29N 69°02' E 033°03'0 0.0
2018-Feb-16 20:59N 69°02' E 033°03'0 0.0
2018-Feb-16 20:26N 69°02' E 033°03'0 0.0
2018-Feb-16 19:56N 69°02' E 033°03'0 0.0
2018-Feb-16 19:29N 69°02' E 033°03'0 0.0
2018-Feb-16 18:59N 69°02' E 033°03'0 0.0
2018-Feb-16 18:29N 69°02' E 033°03'0 0.0
2018-Feb-16 17:56N 69°02' E 033°03'0 0.0
2018-Feb-16 17:29N 69°02' E 033°03'0 0.0
2018-Feb-16 16:59N 69°02' E 033°03'0 0.0
2018-Feb-16 16:20N 69°02' E 033°03'0 0.0
2018-Feb-16 15:59N 69°02' E 033°03'0 0.0
2018-Feb-16 15:26N 69°02' E 033°03'0 0.0
2018-Feb-16 14:59N 69°02' E 033°03'0 0.0
2018-Feb-16 14:29N 69°02' E 033°03'0 0.0
2018-Feb-16 13:59N 69°02' E 033°03'0 0.0
2018-Feb-16 13:29N 69°02' E 033°03'0 0.0
2018-Feb-16 12:59N 69°02' E 033°03'0 0.0
2018-Feb-16 12:29N 69°02' E 033°03'0 0.0
2018-Feb-16 11:50N 69°02' E 033°03'0 0.0
2018-Feb-16 11:29N 69°02' E 033°03'0 0.0
2018-Feb-16 10:56N 69°02' E 033°03'0 0.1
2018-Feb-16 10:29N 69°02' E 033°03'0 0.0
2018-Feb-16 09:59N 69°02' E 033°03'0 0.0
2018-Feb-16 09:23N 69°02' E 033°03'0 0.0
2018-Feb-16 08:59N 69°02' E 033°03'0 0.0
2018-Feb-16 08:29N 69°02' E 033°03'0 0.0
2018-Feb-16 07:59N 69°02' E 033°03'0 0.0
2018-Feb-16 07:29N 69°02' E 033°03'0 0.0
2018-Feb-16 06:59N 69°02' E 033°03'0 0.0
2018-Feb-16 06:29N 69°02' E 033°03'0 0.0
2018-Feb-16 05:59N 69°02' E 033°03'0 0.0
2018-Feb-16 05:29N 69°02' E 033°03'0 0.0
2018-Feb-16 04:53N 69°02' E 033°03'0 0.0
2018-Feb-16 04:29N 69°02' E 033°03'0 0.0
2018-Feb-16 03:59N 69°02' E 033°03'0 0.0
2018-Feb-16 03:29N 69°02' E 033°03'0 0.0
2018-Feb-16 02:59N 69°02' E 033°03'0 0.0
2018-Feb-16 02:29N 69°02' E 033°03'0 0.0
2018-Feb-16 01:59N 69°02' E 033°03'0 0.0
2018-Feb-16 01:29N 69°02' E 033°03'0 0.0
2018-Feb-16 00:59N 69°02' E 033°03'0 0.1
2018-Feb-16 00:29N 69°02' E 033°02'0 0.0
2018-Feb-15 23:59N 69°02' E 033°03'0 0.0
2018-Feb-15 23:29N 69°02' E 033°03'0 0.0
2018-Feb-15 22:59N 69°02' E 033°03'0 0.0
2018-Feb-15 22:29N 69°02' E 033°03'0 0.0
2018-Feb-15 21:56N 69°02' E 033°03'0 0.0
2018-Feb-15 21:29N 69°02' E 033°03'0 0.0
2018-Feb-15 20:59N 69°02' E 033°03'0 0.0
2018-Feb-15 20:29N 69°02' E 033°03'0 0.0
2018-Feb-15 19:59N 69°02' E 033°03'0 0.0
2018-Feb-15 19:29N 69°02' E 033°03'0 0.0
2018-Feb-15 18:59N 69°02' E 033°03'0 0.0
2018-Feb-15 18:29N 69°02' E 033°03'0 0.0
2018-Feb-15 17:59N 69°02' E 033°03'0 0.0
2018-Feb-15 17:29N 69°02' E 033°03'0 0.0
2018-Feb-15 16:59N 69°02' E 033°03'0 0.0
2018-Feb-15 16:29N 69°02' E 033°03'0 0.0
2018-Feb-15 15:59N 69°02' E 033°03'0 0.0
2018-Feb-15 15:29N 69°02' E 033°03'0 0.0
2018-Feb-15 14:56N 69°02' E 033°03'0 0.0
2018-Feb-15 14:20N 69°02' E 033°03'0 0.0
2018-Feb-15 13:56N 69°02' E 033°03'0 0.0
2018-Feb-15 13:29N 69°02' E 033°03'0 0.0
2018-Feb-15 12:59N 69°02' E 033°03'0 0.0
2018-Feb-15 12:29N 69°02' E 033°03'0 0.1
2018-Feb-15 11:59N 69°02' E 033°03'0 0.0
2018-Feb-15 11:29N 69°02' E 033°03'0 0.0
2018-Feb-15 10:59N 69°02' E 033°03'0 0.0
2018-Feb-15 10:29N 69°02' E 033°03'0 0.0
2018-Feb-15 09:59N 69°02' E 033°03'0 0.0
2018-Feb-15 09:26N 69°02' E 033°03'0 0.0
2018-Feb-15 08:59N 69°02' E 033°03'0 0.0
2018-Feb-15 08:29N 69°02' E 033°03'0 0.0
2018-Feb-15 07:59N 69°02' E 033°03'0 0.0
2018-Feb-15 07:29N 69°02' E 033°03'0 0.0
2018-Feb-15 06:59N 69°02' E 033°03'0 0.0
2018-Feb-15 06:20N 69°02' E 033°03'0 0.0
2018-Feb-15 05:59N 69°02' E 033°03'0 0.0
2018-Feb-15 05:29N 69°02' E 033°03'0 0.0
2018-Feb-15 04:56N 69°02' E 033°03'0 0.0
2018-Feb-15 04:29N 69°02' E 033°03'0 0.0
2018-Feb-15 03:59N 69°02' E 033°03'0 0.0
2018-Feb-15 03:29N 69°02' E 033°03'0 0.0
2018-Feb-15 02:59N 69°02' E 033°03'0 0.0
2018-Feb-15 02:29N 69°02' E 033°03'0 0.0
2018-Feb-15 01:59N 69°02' E 033°03'0 0.0
2018-Feb-15 01:29N 69°02' E 033°03'0 0.0
2018-Feb-15 00:59N 69°02' E 033°03'0 0.0
2018-Feb-15 00:29N 69°02' E 033°03'0 0.0
2018-Feb-14 23:59N 69°02' E 033°03'0 0.0
2018-Feb-14 23:29N 69°02' E 033°03'0 0.0
2018-Feb-14 22:59N 69°02' E 033°03'0 0.0
2018-Feb-14 22:29N 69°02' E 033°03'0 0.0
2018-Feb-14 21:59N 69°02' E 033°03'0 0.0
2018-Feb-14 21:26N 69°02' E 033°03'0 0.0
2018-Feb-14 20:56N 69°02' E 033°03'0 0.0
2018-Feb-14 20:29N 69°02' E 033°03'0 0.0
2018-Feb-14 19:59N 69°02' E 033°03'0 0.0
2018-Feb-14 19:29N 69°02' E 033°03'0 0.0
2018-Feb-14 18:59N 69°02' E 033°03'0 0.0
2018-Feb-14 18:29N 69°02' E 033°03'0 0.0
2018-Feb-14 17:59N 69°02' E 033°03'0 0.0
2018-Feb-14 17:29N 69°02' E 033°03'0 0.0
2018-Feb-14 16:59N 69°02' E 033°03'0 0.0
2018-Feb-14 16:29N 69°02' E 033°03'0 0.0
2018-Feb-14 15:59N 69°02' E 033°03'0 0.0
2018-Feb-14 15:29N 69°02' E 033°03'0 0.0
2018-Feb-14 14:59N 69°02' E 033°03'0 0.0
2018-Feb-14 14:29N 69°02' E 033°03'0 0.0
2018-Feb-14 13:56N 69°02' E 033°03'0 0.0
2018-Feb-14 13:29N 69°02' E 033°03'0 0.0
2018-Feb-14 12:59N 69°02' E 033°03'0 0.0
2018-Feb-14 12:29N 69°02' E 033°03'0 0.0
2018-Feb-14 11:56N 69°02' E 033°03'0 0.0
2018-Feb-14 11:29N 69°02' E 033°03'0 0.0
2018-Feb-14 10:59N 69°02' E 033°03'0 0.0
2018-Feb-14 10:29N 69°02' E 033°03'0 0.0
2018-Feb-14 09:59N 69°02' E 033°03'0 0.0
2018-Feb-14 09:29N 69°02' E 033°03'0 0.0
2018-Feb-14 08:59N 69°02' E 033°03'0 0.0
2018-Feb-14 08:29N 69°02' E 033°03'0 0.0
2018-Feb-14 07:59N 69°02' E 033°03'0 0.0
2018-Feb-14 07:29N 69°02' E 033°03'0 0.0
2018-Feb-14 06:59N 69°02' E 033°03'0 0.0
2018-Feb-14 06:29N 69°02' E 033°03'0 0.0
2018-Feb-14 05:59N 69°02' E 033°03'0 0.0
2018-Feb-14 05:29N 69°02' E 033°03'0 0.0
2018-Feb-14 04:53N 69°02' E 033°03'0 0.0
2018-Feb-14 04:26N 69°02' E 033°03'0 0.0
2018-Feb-14 03:59N 69°02' E 033°03'0 0.0
2018-Feb-14 03:29N 69°02' E 033°03'0 0.0
2018-Feb-14 02:59N 69°02' E 033°03'0 0.0
2018-Feb-14 02:29N 69°02' E 033°03'0 0.0
2018-Feb-14 01:59N 69°02' E 033°03'0 0.0
2018-Feb-14 01:29N 69°02' E 033°03'0 0.0
2018-Feb-14 00:59N 69°02' E 033°03'0 0.0
2018-Feb-14 00:26N 69°02' E 033°03'0 0.0
2018-Feb-13 23:59N 69°02' E 033°03'0 0.0
2018-Feb-13 23:26N 69°02' E 033°03'0 0.0
2018-Feb-13 22:59N 69°02' E 033°03'0 0.0
2018-Feb-13 22:26N 69°02' E 033°03'0 0.0
2018-Feb-13 21:59N 69°02' E 033°03'0 0.0
2018-Feb-13 21:29N 69°02' E 033°03'0 0.0
2018-Feb-13 20:59N 69°02' E 033°03'0 0.0
2018-Feb-13 20:29N 69°02' E 033°03'0 0.0
2018-Feb-13 19:56N 69°02' E 033°03'0 0.0
2018-Feb-13 19:29N 69°02' E 033°03'0 0.0
2018-Feb-13 18:59N 69°02' E 033°03'0 0.0
2018-Feb-13 18:23N 69°02' E 033°03'0 0.0
2018-Feb-13 17:59N 69°02' E 033°03'0 0.0
2018-Feb-13 17:29N 69°02' E 033°03'0 0.0
2018-Feb-13 16:59N 69°02' E 033°03'0 0.0
2018-Feb-13 16:29N 69°02' E 033°03'0 0.0
2018-Feb-13 15:59N 69°02' E 033°03'0 0.0
2018-Feb-13 15:29N 69°02' E 033°03'0 0.0
2018-Feb-13 14:59N 69°02' E 033°03'0 0.0
2018-Feb-13 14:29N 69°02' E 033°03'0 0.0
2018-Feb-13 13:59N 69°02' E 033°03'0 0.0
2018-Feb-13 13:29N 69°02' E 033°03'0 0.0
2018-Feb-13 12:59N 69°02' E 033°03'0 0.0
2018-Feb-13 12:29N 69°02' E 033°03'0 0.0
2018-Feb-13 11:56N 69°02' E 033°03'0 0.0
2018-Feb-13 11:26N 69°02' E 033°03'0 0.0
2018-Feb-13 10:56N 69°02' E 033°03'0 0.0
2018-Feb-13 10:29N 69°02' E 033°03'0 0.0
2018-Feb-13 09:59N 69°02' E 033°03'0 0.0
2018-Feb-13 09:29N 69°02' E 033°03'0 0.0
2018-Feb-13 08:59N 69°02' E 033°03'0 0.0
2018-Feb-13 08:26N 69°02' E 033°03'0 0.0
2018-Feb-13 07:59N 69°02' E 033°03'0 0.0
2018-Feb-13 07:29N 69°02' E 033°03'0 0.0
2018-Feb-13 06:59N 69°02' E 033°03'0 0.0
2018-Feb-13 06:29N 69°02' E 033°03'0 0.0
2018-Feb-13 05:59N 69°02' E 033°03'0 0.0
2018-Feb-13 05:29N 69°02' E 033°03'0 0.0
2018-Feb-13 04:56N 69°02' E 033°03'0 0.0
2018-Feb-13 04:26N 69°02' E 033°03'0 0.0
2018-Feb-13 03:59N 69°02' E 033°03'0 0.0
2018-Feb-13 03:29N 69°02' E 033°03'0 0.0
2018-Feb-13 02:56N 69°02' E 033°03'0 0.0
2018-Feb-13 02:29N 69°02' E 033°03'0 0.0
2018-Feb-13 01:59N 69°02' E 033°03'0 0.0
2018-Feb-13 01:29N 69°02' E 033°03'0 0.0
2018-Feb-13 00:59N 69°02' E 033°03'0 0.0
2018-Feb-13 00:29N 69°02' E 033°03'0 0.0
2018-Feb-12 23:56N 69°02' E 033°03'0 0.0
2018-Feb-12 23:29N 69°02' E 033°03'0 0.0
2018-Feb-12 22:59N 69°02' E 033°03'0 0.0
2018-Feb-12 22:29N 69°02' E 033°03'0 0.0
2018-Feb-12 21:59N 69°02' E 033°03'0 0.0
2018-Feb-12 21:29N 69°02' E 033°03'0 0.0
2018-Feb-12 20:59N 69°02' E 033°03'0 0.0
2018-Feb-12 20:29N 69°02' E 033°03'0 0.0
2018-Feb-12 19:59N 69°02' E 033°03'0 0.0
2018-Feb-12 19:29N 69°02' E 033°03'0 0.0
2018-Feb-12 18:59N 69°02' E 033°03'0 0.0
2018-Feb-12 18:29N 69°02' E 033°03'0 0.0
2018-Feb-12 17:59N 69°02' E 033°03'0 0.0
2018-Feb-12 17:29N 69°02' E 033°03'0 0.0
2018-Feb-12 16:56N 69°02' E 033°03'0 0.0
2018-Feb-12 16:29N 69°02' E 033°03'0 0.0
2018-Feb-12 15:59N 69°02' E 033°03'0 0.0
2018-Feb-12 15:17N 69°02' E 033°03'0 0.0
2018-Feb-12 14:59N 69°02' E 033°03'0 0.0
2018-Feb-12 14:29N 69°02' E 033°03'0 0.0
2018-Feb-12 13:59N 69°02' E 033°03'0 0.0
2018-Feb-12 13:29N 69°02' E 033°03'0 0.0
2018-Feb-12 12:59N 69°02' E 033°03'0 0.0
2018-Feb-12 12:29N 69°02' E 033°03'0 0.0
2018-Feb-12 11:56N 69°02' E 033°03'0 0.0
2018-Feb-12 11:29N 69°02' E 033°03'0 0.0
2018-Feb-12 10:59N 69°02' E 033°03'0 0.1
2018-Feb-12 10:29N 69°02' E 033°03'0 0.1
2018-Feb-12 09:59N 69°02' E 033°03'0 0.0
2018-Feb-12 09:29N 69°02' E 033°03'  

Dump ship's entire track history